createdAt,value
2023-02-16T00:01:29.164Z,-0.18
2023-02-16T00:03:56.742Z,-0.32
2023-02-16T00:06:27.798Z,0.14
2023-02-16T00:08:56.222Z,0.00
2023-02-16T00:11:52.808Z,-0.03
2023-02-16T00:14:26.239Z,-0.21
2023-02-16T00:16:54.977Z,-0.25
2023-02-16T00:19:28.470Z,-0.20
2023-02-16T00:21:57.613Z,0.01
2023-02-16T00:24:26.742Z,-0.14
2023-02-16T00:26:54.447Z,-0.26
2023-02-16T00:29:24.881Z,-0.30
2023-02-16T00:31:52.579Z,-0.34
2023-02-16T00:34:28.100Z,-0.26
2023-02-16T00:36:55.831Z,-0.16
2023-02-16T00:39:25.068Z,-0.03
2023-02-16T00:41:56.303Z,0.31
2023-02-16T00:44:33.572Z,0.05
2023-02-16T00:47:15.399Z,0.26
2023-02-16T00:49:42.287Z,0.21
2023-02-16T00:52:12.233Z,-0.02
2023-02-16T00:54:39.081Z,-0.24
2023-02-16T00:57:05.748Z,-0.32
2023-02-16T00:59:32.622Z,0.16
2023-02-16T01:01:59.306Z,0.43
2023-02-16T01:04:26.272Z,0.47
2023-02-16T01:07:11.691Z,0.48
2023-02-16T01:09:57.238Z,0.10
2023-02-16T01:12:24.282Z,0.04
2023-02-16T01:14:54.318Z,0.22
2023-02-16T01:17:21.709Z,0.30
2023-02-16T01:19:48.631Z,0.41
2023-02-16T01:22:15.997Z,0.02
2023-02-16T01:24:42.896Z,-0.12
2023-02-16T01:27:12.750Z,0.50
2023-02-16T01:29:39.802Z,0.61
2023-02-16T01:32:06.715Z,0.37
2023-02-16T01:34:33.696Z,-0.10
2023-02-16T01:37:00.331Z,-0.20
2023-02-16T01:39:27.243Z,-0.44
2023-02-16T01:42:06.212Z,-0.07
2023-02-16T01:44:34.996Z,-0.30
2023-02-16T01:47:07.443Z,-0.36
2023-02-16T01:49:34.340Z,-0.88
2023-02-16T01:52:11.471Z,-1.27
2023-02-16T01:54:40.780Z,-0.98
2023-02-16T01:57:10.609Z,-0.34
2023-02-16T01:59:49.628Z,-0.27
2023-02-16T02:02:22.942Z,-0.49
2023-02-16T02:05:19.571Z,-0.60
2023-02-16T02:08:00.055Z,-0.34
2023-02-16T02:10:52.904Z,-0.69
2023-02-16T02:13:37.072Z,-0.56
2023-02-16T02:16:05.567Z,-0.55
2023-02-16T02:18:32.576Z,-0.50
2023-02-16T02:21:55.760Z,-0.23
2023-02-16T02:24:43.932Z,-0.05
2023-02-16T02:27:19.560Z,-0.36
2023-02-16T02:30:20.599Z,-0.27
2023-02-16T02:33:29.668Z,-0.25
2023-02-16T02:36:07.848Z,-0.33
2023-02-16T02:38:52.788Z,0.01
2023-02-16T02:41:54.415Z,-0.02
2023-02-16T02:44:23.041Z,-0.13
2023-02-16T02:46:50.259Z,0.14
2023-02-16T02:49:17.188Z,0.14
2023-02-16T02:51:44.091Z,-0.06
2023-02-16T02:54:53.633Z,-0.21
2023-02-16T02:58:00.252Z,-0.06
2023-02-16T03:00:44.101Z,-0.18
2023-02-16T03:03:23.138Z,-0.34
2023-02-16T03:05:55.925Z,-0.07
2023-02-16T03:08:25.332Z,-0.40
2023-02-16T03:11:17.272Z,-0.51
2023-02-16T03:13:47.898Z,-0.34
2023-02-16T03:16:19.584Z,-0.35
2023-02-16T03:19:05.913Z,-0.50
2023-02-16T03:21:52.431Z,-0.66
2023-02-16T03:24:46.729Z,0.05
2023-02-16T03:27:34.502Z,-0.35
2023-02-16T03:30:02.526Z,-0.55
2023-02-16T03:32:29.472Z,-0.04
2023-02-16T03:34:56.450Z,-0.23
2023-02-16T03:37:23.474Z,-0.18
2023-02-16T03:40:09.087Z,-0.19
2023-02-16T03:42:35.936Z,-0.46
2023-02-16T03:45:02.642Z,-0.38
2023-02-16T03:47:29.506Z,-0.46
2023-02-16T03:49:56.164Z,-0.03
2023-02-16T03:52:23.030Z,-0.29
2023-02-16T03:54:49.708Z,-0.60
2023-02-16T03:57:17.168Z,-0.49
2023-02-16T03:59:44.016Z,-0.81
2023-02-16T04:02:10.759Z,-0.21
2023-02-16T04:04:37.666Z,0.03
2023-02-16T04:07:04.550Z,-0.18
2023-02-16T04:09:31.221Z,-0.03
2023-02-16T04:12:16.482Z,-0.16
2023-02-16T04:14:43.845Z,-0.82
2023-02-16T04:17:10.801Z,-1.12
2023-02-16T04:19:37.698Z,-0.91
2023-02-16T04:22:04.569Z,-1.58
2023-02-16T04:24:31.232Z,-1.06
2023-02-16T04:26:58.123Z,-0.88
2023-02-16T04:29:25.006Z,-0.61
2023-02-16T04:31:52.027Z,-0.53
2023-02-16T04:34:19.056Z,-0.25
2023-02-16T04:36:45.919Z,-1.21
2023-02-16T04:39:12.635Z,-0.82
2023-02-16T04:41:39.486Z,-1.18
2023-02-16T04:44:06.157Z,-1.05
2023-02-16T04:46:33.057Z,-0.99
2023-02-16T04:49:00.025Z,-0.58
2023-02-16T04:51:26.950Z,-0.72
2023-02-16T04:53:53.804Z,-0.14
2023-02-16T04:56:20.453Z,-0.38
2023-02-16T04:58:47.379Z,-0.12
2023-02-16T05:01:25.819Z,-0.16
2023-02-16T05:03:52.728Z,-0.15
2023-02-16T05:06:19.463Z,-0.24
2023-02-16T05:08:47.022Z,-0.63
2023-02-16T05:11:32.369Z,-1.27
2023-02-16T05:14:22.849Z,-0.84
2023-02-16T05:16:49.765Z,-0.16
2023-02-16T05:19:16.739Z,-0.12
2023-02-16T05:21:43.616Z,-0.14
2023-02-16T05:24:11.167Z,-0.37
2023-02-16T05:26:42.283Z,-0.36
2023-02-16T05:29:09.229Z,-0.25
2023-02-16T05:31:36.189Z,-0.56
2023-02-16T05:34:03.172Z,-0.91
2023-02-16T05:36:30.068Z,-1.53
2023-02-16T05:38:57.062Z,-1.64
2023-02-16T05:41:23.968Z,-1.62
2023-02-16T05:43:58.906Z,-1.34
2023-02-16T05:46:26.660Z,-0.71
2023-02-16T05:48:53.689Z,-0.59
2023-02-16T05:51:21.258Z,-0.37
2023-02-16T05:53:48.125Z,-0.28
2023-02-16T05:56:15.392Z,-0.59
2023-02-16T05:58:42.428Z,-0.55
2023-02-16T06:01:09.288Z,-0.44
2023-02-16T06:03:36.540Z,-0.85
2023-02-16T06:06:04.858Z,-0.65
2023-02-16T06:08:32.678Z,-1.32
2023-02-16T06:10:59.982Z,-1.03
2023-02-16T06:13:26.905Z,-1.44
2023-02-16T06:15:55.633Z,-1.60
2023-02-16T06:18:24.006Z,-0.94
2023-02-16T06:20:51.014Z,-0.99
2023-02-16T06:23:18.247Z,-0.73
2023-02-16T06:25:50.536Z,-0.65
2023-02-16T06:28:17.463Z,-0.07
2023-02-16T06:30:44.299Z,-0.35
2023-02-16T06:33:11.090Z,-0.28
2023-02-16T06:35:37.913Z,-0.09
2023-02-16T06:38:04.584Z,0.53
2023-02-16T06:40:31.455Z,1.40
2023-02-16T06:42:58.128Z,2.57
2023-02-16T06:45:24.981Z,3.51
2023-02-16T06:47:51.675Z,4.05
2023-02-16T06:50:19.270Z,4.64
2023-02-16T06:52:46.163Z,5.22
2023-02-16T06:55:13.054Z,5.77
2023-02-16T06:57:39.908Z,6.80
2023-02-16T07:00:07.773Z,7.43
2023-02-16T07:02:35.830Z,7.72
2023-02-16T07:05:03.436Z,8.44
2023-02-16T07:07:31.427Z,8.33
2023-02-16T07:09:58.452Z,8.90
2023-02-16T07:12:25.311Z,8.78
2023-02-16T07:14:51.989Z,8.43
2023-02-16T07:17:18.849Z,8.91
2023-02-16T07:19:45.533Z,9.67
2023-02-16T07:22:12.740Z,9.51
2023-02-16T07:24:39.620Z,8.96
2023-02-16T07:27:07.059Z,9.51
2023-02-16T07:29:33.901Z,9.18
2023-02-16T07:32:01.509Z,9.39
2023-02-16T07:34:28.522Z,9.39
2023-02-16T07:36:55.375Z,9.99
2023-02-16T07:39:22.173Z,10.11
2023-02-16T07:41:49.017Z,10.27
2023-02-16T07:44:15.678Z,10.48
2023-02-16T07:46:42.535Z,10.73
2023-02-16T07:49:09.484Z,10.37
2023-02-16T07:51:36.358Z,10.24
2023-02-16T07:54:03.288Z,10.79
2023-02-16T07:56:32.103Z,11.21
2023-02-16T07:59:00.466Z,11.21
2023-02-16T08:01:28.476Z,10.99
2023-02-16T08:03:55.376Z,10.45
2023-02-16T08:06:22.436Z,10.34
2023-02-16T08:08:49.923Z,10.49
2023-02-16T08:11:24.321Z,10.76
2023-02-16T08:13:51.980Z,10.61
2023-02-16T08:16:21.464Z,10.31
2023-02-16T08:18:48.596Z,10.26
2023-02-16T08:21:18.285Z,10.43
2023-02-16T08:23:49.607Z,10.56
2023-02-16T08:26:17.611Z,10.57
2023-02-16T08:28:50.236Z,10.46
2023-02-16T08:31:20.882Z,11.05
2023-02-16T08:33:48.276Z,11.32
2023-02-16T08:36:23.670Z,11.28
2023-02-16T08:38:52.414Z,11.40
2023-02-16T08:41:20.340Z,11.54
2023-02-16T08:43:48.341Z,11.58
2023-02-16T08:46:16.475Z,12.01
2023-02-16T08:48:45.382Z,11.33
2023-02-16T08:51:19.988Z,11.10
2023-02-16T08:53:47.113Z,11.29
2023-02-16T08:56:15.026Z,11.57
2023-02-16T08:58:42.486Z,11.08
2023-02-16T09:01:10.891Z,10.57
2023-02-16T09:03:41.353Z,10.53
2023-02-16T09:06:09.077Z,10.54
2023-02-16T09:08:39.129Z,10.79
2023-02-16T09:11:08.901Z,11.04
2023-02-16T09:13:36.496Z,11.32
2023-02-16T09:16:08.204Z,11.07
2023-02-16T09:18:36.945Z,11.33
2023-02-16T09:21:12.827Z,11.42
2023-02-16T09:23:41.393Z,11.74
2023-02-16T09:26:10.560Z,12.15
2023-02-16T09:28:38.388Z,11.90
2023-02-16T09:31:27.467Z,11.69
2023-02-16T09:33:57.093Z,12.07
2023-02-16T09:36:24.610Z,11.61
2023-02-16T09:38:51.640Z,11.55
2023-02-16T09:41:37.780Z,11.61
2023-02-16T09:44:21.052Z,11.90
2023-02-16T09:46:49.136Z,11.44
2023-02-16T09:49:30.478Z,11.79
2023-02-16T09:52:05.789Z,11.74
2023-02-16T09:54:40.693Z,11.61
2023-02-16T09:57:16.975Z,11.39
2023-02-16T10:00:04.623Z,11.46
2023-02-16T10:02:45.952Z,11.35
2023-02-16T10:05:22.009Z,11.77
2023-02-16T10:11:49.060Z,11.43
2023-02-16T10:14:32.774Z,11.32
2023-02-16T10:23:52.888Z,11.43
2023-02-16T10:26:28.863Z,11.37
2023-02-16T10:32:30.770Z,11.91
2023-02-16T10:35:01.298Z,12.37
2023-02-16T10:41:34.511Z,12.33
2023-02-16T10:44:14.036Z,12.44
2023-02-16T10:46:43.666Z,12.44
2023-02-16T10:52:54.670Z,12.25
2023-02-16T10:55:22.084Z,12.57
2023-02-16T11:04:37.810Z,13.52
2023-02-16T11:14:23.846Z,14.14
2023-02-16T11:17:08.770Z,14.54
2023-02-16T11:19:35.707Z,14.48
2023-02-16T11:22:02.817Z,14.83
2023-02-16T11:24:32.557Z,14.93
2023-02-16T11:27:03.641Z,14.36
2023-02-16T11:29:31.830Z,14.37
2023-02-16T11:32:02.203Z,14.62
2023-02-16T11:34:34.182Z,14.91
2023-02-16T11:37:05.624Z,15.14
2023-02-16T11:39:37.804Z,14.69
2023-02-16T11:42:22.446Z,14.66
2023-02-16T11:44:53.882Z,15.22
2023-02-16T11:51:32.046Z,14.85
2023-02-16T11:54:05.474Z,14.77
2023-02-16T11:56:34.509Z,14.99
2023-02-16T12:02:40.789Z,15.44
2023-02-16T12:05:26.298Z,15.37
2023-02-16T12:11:46.090Z,15.59
2023-02-16T12:14:57.245Z,15.05
2023-02-16T12:24:24.840Z,15.51
2023-02-16T12:26:55.748Z,15.30
2023-02-16T12:29:45.015Z,15.17
2023-02-16T12:32:20.768Z,15.05
2023-02-16T12:34:57.797Z,15.18
2023-02-16T12:41:36.488Z,14.37
2023-02-16T12:44:08.556Z,14.51
2023-02-16T12:46:39.720Z,14.50
2023-02-16T12:53:17.566Z,14.45
2023-02-16T12:55:49.212Z,14.02
2023-02-16T13:02:25.276Z,14.29
2023-02-16T13:05:12.034Z,14.03
2023-02-16T13:11:46.029Z,14.06
2023-02-16T13:14:31.037Z,13.79
2023-02-16T13:17:02.169Z,13.96
2023-02-16T13:19:29.242Z,13.80
2023-02-16T13:22:11.520Z,13.84
2023-02-16T13:24:52.945Z,13.83
2023-02-16T13:35:00.381Z,14.00
2023-02-16T13:41:36.616Z,13.65
2023-02-16T13:44:16.002Z,13.86
2023-02-16T13:46:50.335Z,13.80
2023-02-16T13:52:45.622Z,13.92
2023-02-16T13:55:39.505Z,13.98
2023-02-16T14:04:23.862Z,14.17
2023-02-16T14:07:13.929Z,13.90
2023-02-16T14:09:41.121Z,14.29
2023-02-16T14:12:31.937Z,14.24
2023-02-16T14:15:05.174Z,13.72
2023-02-16T14:21:39.354Z,13.90
2023-02-16T14:24:10.957Z,13.75
2023-02-16T14:27:15.940Z,13.67
2023-02-16T14:30:14.806Z,13.45
2023-02-16T14:32:47.711Z,13.86
2023-02-16T14:35:29.495Z,13.99
2023-02-16T14:41:39.038Z,14.00
2023-02-16T14:44:06.171Z,14.01
2023-02-16T14:46:50.999Z,13.98
2023-02-16T14:53:17.970Z,14.21
2023-02-16T14:56:10.039Z,14.07
2023-02-16T15:05:21.777Z,13.54
2023-02-16T15:11:58.544Z,13.34
2023-02-16T15:14:26.160Z,12.98
2023-02-16T15:16:54.129Z,12.86
2023-02-16T15:23:04.195Z,12.74
2023-02-16T15:25:39.622Z,12.45
2023-02-16T15:28:12.263Z,12.52
2023-02-16T15:30:47.435Z,12.41
2023-02-16T15:33:23.667Z,12.02
2023-02-16T15:36:01.921Z,11.74
2023-02-16T15:42:21.023Z,11.49
2023-02-16T15:44:48.392Z,11.49
2023-02-16T15:51:34.111Z,11.12
2023-02-16T15:54:06.749Z,10.89
2023-02-16T15:56:38.457Z,10.56
2023-02-16T16:02:29.126Z,10.14
2023-02-16T16:04:58.801Z,10.72
2023-02-16T16:11:37.967Z,10.69
2023-02-16T16:14:06.301Z,10.77
2023-02-16T16:16:34.053Z,10.49
2023-02-16T16:22:43.046Z,10.48
2023-02-16T16:25:35.453Z,10.42
2023-02-16T16:31:43.674Z,10.40
2023-02-16T16:34:15.888Z,9.81
2023-02-16T16:36:56.722Z,9.18
2023-02-16T16:39:31.796Z,9.88
2023-02-16T16:42:01.645Z,9.37
2023-02-16T16:44:42.729Z,9.14
2023-02-16T16:53:52.600Z,8.26
2023-02-16T16:56:20.586Z,8.49
2023-02-16T17:11:06.531Z,8.01
2023-02-16T17:13:33.429Z,7.74
2023-02-16T17:16:07.383Z,7.82
2023-02-16T17:21:50.696Z,7.61
2023-02-16T17:24:17.833Z,7.73
2023-02-16T17:26:44.714Z,7.22
2023-02-16T17:32:59.027Z,7.41
2023-02-16T17:35:28.211Z,7.27
2023-02-16T17:41:41.829Z,7.12
2023-02-16T17:44:08.683Z,7.03
2023-02-16T17:46:35.419Z,7.14
2023-02-16T17:52:44.268Z,6.73
2023-02-16T17:55:12.362Z,7.13
2023-02-16T17:57:39.838Z,7.17
2023-02-16T18:00:09.411Z,7.15
2023-02-16T18:02:36.278Z,6.92
2023-02-16T18:05:02.922Z,7.16
2023-02-16T18:11:41.548Z,7.13
2023-02-16T18:14:08.482Z,6.88
2023-02-16T18:16:35.518Z,6.64
2023-02-16T18:29:33.121Z,6.19
2023-02-16T18:32:00.008Z,6.02
2023-02-16T18:34:26.936Z,6.09
2023-02-16T18:36:53.795Z,6.24
2023-02-16T18:42:42.986Z,6.07
2023-02-16T18:45:10.073Z,5.99
2023-02-16T18:54:09.974Z,5.98
2023-02-16T18:56:38.016Z,5.76
2023-02-16T18:59:04.911Z,5.75
2023-02-16T19:01:33.334Z,5.42
2023-02-16T19:04:01.320Z,5.24
2023-02-16T19:06:28.837Z,5.05
2023-02-16T19:12:42.490Z,5.52
2023-02-16T19:15:12.666Z,5.35
2023-02-16T19:17:42.133Z,5.56
2023-02-16T19:20:12.352Z,5.33
2023-02-16T19:22:39.219Z,5.51
2023-02-16T19:25:06.151Z,5.46
2023-02-16T19:27:36.157Z,5.33
2023-02-16T19:30:03.185Z,4.80
2023-02-16T19:32:32.791Z,4.76
2023-02-16T19:34:59.635Z,4.44
2023-02-16T19:41:28.779Z,4.48
2023-02-16T19:43:55.999Z,4.59
2023-02-16T19:46:23.793Z,5.05
2023-02-16T19:48:50.696Z,5.18
2023-02-16T19:51:18.033Z,4.25
2023-02-16T19:53:44.960Z,4.54
2023-02-16T19:56:13.924Z,4.70
2023-02-16T19:58:41.054Z,4.64
2023-02-16T20:01:19.167Z,4.48
2023-02-16T20:03:46.511Z,4.55
2023-02-16T20:06:31.551Z,4.49
2023-02-16T20:08:59.762Z,4.44
2023-02-16T20:11:28.814Z,4.39
2023-02-16T20:13:56.082Z,4.16
2023-02-16T20:16:24.012Z,4.08
2023-02-16T20:25:00.790Z,3.73
2023-02-16T20:27:28.682Z,3.73
2023-02-16T20:29:55.796Z,3.61
2023-02-16T20:32:26.681Z,3.83
2023-02-16T20:34:53.561Z,3.00
2023-02-16T20:41:29.350Z,3.36
2023-02-16T20:43:56.442Z,3.43
2023-02-16T20:46:24.053Z,3.87
2023-02-16T20:48:51.734Z,3.59
2023-02-16T20:51:19.421Z,3.16
2023-02-16T20:53:46.480Z,3.29
2023-02-16T20:56:20.668Z,3.71
2023-02-16T20:58:49.716Z,3.52
2023-02-16T21:01:27.751Z,4.16
2023-02-16T21:03:56.070Z,3.90
2023-02-16T21:06:23.158Z,3.37
2023-02-16T21:12:30.621Z,2.96
2023-02-16T21:14:57.299Z,3.52
2023-02-16T21:21:38.736Z,3.94
2023-02-16T21:24:05.844Z,3.78
2023-02-16T21:26:32.747Z,3.63
2023-02-16T21:32:40.876Z,4.23
2023-02-16T21:35:07.854Z,3.77
2023-02-16T21:37:35.373Z,4.40
2023-02-16T21:40:20.961Z,4.33
2023-02-16T21:42:47.930Z,3.90
2023-02-16T21:45:14.805Z,4.26
2023-02-16T21:48:02.310Z,4.14
2023-02-16T21:50:30.146Z,4.15
2023-02-16T21:52:58.318Z,4.71
2023-02-16T21:55:43.942Z,4.46
2023-02-16T21:58:10.992Z,4.22
2023-02-16T22:00:38.863Z,4.53
2023-02-16T22:03:06.293Z,4.82
2023-02-16T22:05:34.561Z,5.00
2023-02-16T22:08:01.683Z,4.39
2023-02-16T22:10:28.908Z,4.65
2023-02-16T22:12:56.973Z,4.26
2023-02-16T22:15:26.052Z,4.64
2023-02-16T22:21:41.324Z,4.49
2023-02-16T22:24:08.875Z,3.72
2023-02-16T22:26:36.283Z,4.10
2023-02-16T22:32:43.891Z,4.54
2023-02-16T22:35:10.583Z,3.73
2023-02-16T22:37:37.483Z,4.00
2023-02-16T22:40:04.593Z,4.06
2023-02-16T22:42:31.714Z,4.11
2023-02-16T22:44:58.538Z,3.89
2023-02-16T22:51:40.267Z,3.74
2023-02-16T22:54:07.488Z,2.83
2023-02-16T22:56:34.928Z,3.32
2023-02-16T22:59:02.040Z,3.98
2023-02-16T23:01:30.022Z,4.28
2023-02-16T23:03:58.794Z,4.32
2023-02-16T23:06:37.092Z,4.53
2023-02-16T23:09:06.656Z,4.45
2023-02-16T23:11:34.786Z,4.58
2023-02-16T23:14:02.138Z,4.44
2023-02-16T23:16:29.029Z,4.36
2023-02-16T23:22:36.614Z,4.14
2023-02-16T23:25:22.187Z,4.09
2023-02-16T23:31:36.469Z,4.05
2023-02-16T23:34:04.530Z,3.83
2023-02-16T23:36:33.234Z,3.95
2023-02-16T23:39:01.246Z,3.49
2023-02-16T23:41:28.226Z,3.70
2023-02-16T23:43:56.529Z,3.96
2023-02-16T23:46:24.853Z,3.88
2023-02-16T23:48:51.713Z,3.65
2023-02-16T23:51:18.829Z,3.67
2023-02-16T23:53:45.734Z,3.72
2023-02-16T23:56:19.838Z,3.32
2023-02-16T23:58:47.244Z,3.89
